sensor_id;sensor_type;location;lat;lon;timestamp;temperature;humidity
285;DHT22;127;48.770;9.212;2023-07-13T00:01:31;19.40;99.90
285;DHT22;127;48.770;9.212;2023-07-13T00:04:01;19.40;99.90
285;DHT22;127;48.770;9.212;2023-07-13T00:06:29;19.40;99.90
285;DHT22;127;48.770;9.212;2023-07-13T00:08:58;19.30;99.90
285;DHT22;127;48.770;9.212;2023-07-13T00:11:30;19.30;99.90
285;DHT22;127;48.770;9.212;2023-07-13T00:13:58;19.20;99.90
285;DHT22;127;48.770;9.212;2023-07-13T00:16:27;19.20;99.90
285;DHT22;127;48.770;9.212;2023-07-13T00:18:58;19.20;99.90
285;DHT22;127;48.770;9.212;2023-07-13T00:21:28;19.20;99.90
285;DHT22;127;48.770;9.212;2023-07-13T00:23:57;19.20;99.90
285;DHT22;127;48.770;9.212;2023-07-13T00:26:28;19.20;99.90
285;DHT22;127;48.770;9.212;2023-07-13T00:28:58;19.10;99.90
285;DHT22;127;48.770;9.212;2023-07-13T00:31:27;19.20;99.90
285;DHT22;127;48.770;9.212;2023-07-13T00:33:56;19.10;99.90
285;DHT22;127;48.770;9.212;2023-07-13T00:36:26;19.00;99.90
285;DHT22;127;48.770;9.212;2023-07-13T00:38:54;19.00;99.90
285;DHT22;127;48.770;9.212;2023-07-13T00:41:23;18.90;99.90
285;DHT22;127;48.770;9.212;2023-07-13T00:43:54;18.90;99.90
285;DHT22;127;48.770;9.212;2023-07-13T00:46:26;18.80;99.90
285;DHT22;127;48.770;9.212;2023-07-13T00:48:57;18.80;99.90
285;DHT22;127;48.770;9.212;2023-07-13T00:51:31;18.80;99.90
285;DHT22;127;48.770;9.212;2023-07-13T00:54:04;18.80;99.90
285;DHT22;127;48.770;9.212;2023-07-13T00:56:33;18.70;99.90
285;DHT22;127;48.770;9.212;2023-07-13T00:59:06;18.70;99.90
285;DHT22;127;48.770;9.212;2023-07-13T01:01:37;18.70;99.90
285;DHT22;127;48.770;9.212;2023-07-13T01:04:06;18.60;99.90
285;DHT22;127;48.770;9.212;2023-07-13T01:06:35;18.70;99.90
285;DHT22;127;48.770;9.212;2023-07-13T01:09:04;18.70;99.90
285;DHT22;127;48.770;9.212;2023-07-13T01:11:36;18.70;99.90
285;DHT22;127;48.770;9.212;2023-07-13T01:14:07;18.60;99.90
285;DHT22;127;48.770;9.212;2023-07-13T01:16:37;18.70;99.90
285;DHT22;127;48.770;9.212;2023-07-13T01:19:20;18.60;99.90
285;DHT22;127;48.770;9.212;2023-07-13T01:21:53;18.70;99.90
285;DHT22;127;48.770;9.212;2023-07-13T01:24:22;18.70;99.90
285;DHT22;127;48.770;9.212;2023-07-13T01:26:51;18.70;99.90
285;DHT22;127;48.770;9.212;2023-07-13T01:29:21;18.70;99.90
285;DHT22;127;48.770;9.212;2023-07-13T01:31:50;18.70;99.90
285;DHT22;127;48.770;9.212;2023-07-13T01:34:18;18.60;99.90
285;DHT22;127;48.770;9.212;2023-07-13T01:36:47;18.50;99.90
285;DHT22;127;48.770;9.212;2023-07-13T01:39:22;18.40;99.90
285;DHT22;127;48.770;9.212;2023-07-13T01:41:50;18.40;99.90
285;DHT22;127;48.770;9.212;2023-07-13T01:44:19;18.30;99.90
285;DHT22;127;48.770;9.212;2023-07-13T01:46:48;18.20;99.90
285;DHT22;127;48.770;9.212;2023-07-13T01:49:17;18.20;99.90
285;DHT22;127;48.770;9.212;2023-07-13T01:51:46;18.10;99.90
285;DHT22;127;48.770;9.212;2023-07-13T01:54:15;18.10;99.90
285;DHT22;127;48.770;9.212;2023-07-13T01:56:46;18.10;99.90
285;DHT22;127;48.770;9.212;2023-07-13T01:59:15;18.00;99.90
285;DHT22;127;48.770;9.212;2023-07-13T02:01:43;17.90;99.90
285;DHT22;127;48.770;9.212;2023-07-13T02:04:14;17.90;99.90
285;DHT22;127;48.770;9.212;2023-07-13T02:06:42;17.90;99.90
285;DHT22;127;48.770;9.212;2023-07-13T02:09:11;17.80;99.90
285;DHT22;127;48.770;9.212;2023-07-13T02:11:40;17.70;99.90
285;DHT22;127;48.770;9.212;2023-07-13T02:14:11;17.60;99.90
285;DHT22;127;48.770;9.212;2023-07-13T02:16:41;17.60;99.90
285;DHT22;127;48.770;9.212;2023-07-13T02:19:09;17.60;99.90
285;DHT22;127;48.770;9.212;2023-07-13T02:21:38;17.60;99.90
285;DHT22;127;48.770;9.212;2023-07-13T02:24:07;17.50;99.90
285;DHT22;127;48.770;9.212;2023-07-13T02:26:40;17.40;99.90
285;DHT22;127;48.770;9.212;2023-07-13T02:29:12;17.40;99.90
285;DHT22;127;48.770;9.212;2023-07-13T02:31:40;17.30;99.90
285;DHT22;127;48.770;9.212;2023-07-13T02:34:09;17.30;99.90
285;DHT22;127;48.770;9.212;2023-07-13T02:36:38;17.20;99.90
285;DHT22;127;48.770;9.212;2023-07-13T02:39:07;17.20;99.90
285;DHT22;127;48.770;9.212;2023-07-13T02:41:37;17.10;99.90
285;DHT22;127;48.770;9.212;2023-07-13T02:44:05;17.10;99.90
285;DHT22;127;48.770;9.212;2023-07-13T02:46:37;17.00;99.90
285;DHT22;127;48.770;9.212;2023-07-13T02:49:06;16.80;99.90
285;DHT22;127;48.770;9.212;2023-07-13T02:51:35;16.60;99.90
285;DHT22;127;48.770;9.212;2023-07-13T02:54:04;16.50;99.90
285;DHT22;127;48.770;9.212;2023-07-13T02:56:34;16.30;99.90
285;DHT22;127;48.770;9.212;2023-07-13T02:59:04;16.30;99.90
285;DHT22;127;48.770;9.212;2023-07-13T03:01:35;16.20;99.90
285;DHT22;127;48.770;9.212;2023-07-13T03:04:04;16.20;99.90
285;DHT22;127;48.770;9.212;2023-07-13T03:06:33;16.10;99.90
285;DHT22;127;48.770;9.212;2023-07-13T03:09:02;16.00;99.90
285;DHT22;127;48.770;9.212;2023-07-13T03:11:31;16.10;99.90
285;DHT22;127;48.770;9.212;2023-07-13T03:14:00;16.00;99.90
285;DHT22;127;48.770;9.212;2023-07-13T03:16:28;16.00;99.90
285;DHT22;127;48.770;9.212;2023-07-13T03:19:00;15.90;99.90
285;DHT22;127;48.770;9.212;2023-07-13T03:21:28;16.00;99.90
285;DHT22;127;48.770;9.212;2023-07-13T03:23:57;16.10;99.90
285;DHT22;127;48.770;9.212;2023-07-13T03:26:26;16.20;99.90
285;DHT22;127;48.770;9.212;2023-07-13T03:28:55;16.20;99.90
285;DHT22;127;48.770;9.212;2023-07-13T03:31:26;16.30;99.90
285;DHT22;127;48.770;9.212;2023-07-13T03:33:55;16.40;99.90
285;DHT22;127;48.770;9.212;2023-07-13T03:36:28;16.60;99.90
285;DHT22;127;48.770;9.212;2023-07-13T03:39:00;16.70;99.90
285;DHT22;127;48.770;9.212;2023-07-13T03:41:29;16.90;99.90
285;DHT22;127;48.770;9.212;2023-07-13T03:43:57;17.10;99.90
285;DHT22;127;48.770;9.212;2023-07-13T03:46:28;17.10;99.90
285;DHT22;127;48.770;9.212;2023-07-13T03:48:57;17.30;99.90
285;DHT22;127;48.770;9.212;2023-07-13T03:51:28;17.30;99.90
285;DHT22;127;48.770;9.212;2023-07-13T03:53:57;17.50;99.90
285;DHT22;127;48.770;9.212;2023-07-13T03:56:26;17.60;99.90
285;DHT22;127;48.770;9.212;2023-07-13T03:58:56;17.60;99.90
285;DHT22;127;48.770;9.212;2023-07-13T04:01:25;17.70;99.90
285;DHT22;127;48.770;9.212;2023-07-13T04:03:54;17.70;99.90
285;DHT22;127;48.770;9.212;2023-07-13T04:06:26;17.80;99.90
285;DHT22;127;48.770;9.212;2023-07-13T04:08:59;17.90;99.90
285;DHT22;127;48.770;9.212;2023-07-13T04:11:30;17.90;99.90
285;DHT22;127;48.770;9.212;2023-07-13T04:14:01;17.90;99.90
285;DHT22;127;48.770;9.212;2023-07-13T04:16:31;17.90;99.90
285;DHT22;127;48.770;9.212;2023-07-13T04:18:59;17.90;99.90
285;DHT22;127;48.770;9.212;2023-07-13T04:21:29;18.00;99.90
285;DHT22;127;48.770;9.212;2023-07-13T04:24:01;18.00;99.90
285;DHT22;127;48.770;9.212;2023-07-13T04:26:30;17.90;99.90
285;DHT22;127;48.770;9.212;2023-07-13T04:29:01;18.00;99.90
285;DHT22;127;48.770;9.212;2023-07-13T04:31:31;18.00;99.90
285;DHT22;127;48.770;9.212;2023-07-13T04:34:00;18.00;99.90
285;DHT22;127;48.770;9.212;2023-07-13T04:36:29;18.00;99.90
285;DHT22;127;48.770;9.212;2023-07-13T04:39:00;18.00;99.90
285;DHT22;127;48.770;9.212;2023-07-13T04:41:29;18.10;99.90
285;DHT22;127;48.770;9.212;2023-07-13T04:43:58;18.10;99.90
285;DHT22;127;48.770;9.212;2023-07-13T04:46:28;18.00;99.90
285;DHT22;127;48.770;9.212;2023-07-13T04:48:57;18.10;99.90
285;DHT22;127;48.770;9.212;2023-07-13T04:51:26;18.10;99.90
285;DHT22;127;48.770;9.212;2023-07-13T04:53:55;18.10;99.90
285;DHT22;127;48.770;9.212;2023-07-13T04:56:26;18.10;99.90
285;DHT22;127;48.770;9.212;2023-07-13T04:58:55;18.00;99.90
285;DHT22;127;48.770;9.212;2023-07-13T05:01:24;17.90;99.90
285;DHT22;127;48.770;9.212;2023-07-13T05:03:53;17.90;99.90
285;DHT22;127;48.770;9.212;2023-07-13T05:06:24;17.70;99.90
285;DHT22;127;48.770;9.212;2023-07-13T05:08:52;17.60;99.90
285;DHT22;127;48.770;9.212;2023-07-13T05:11:21;17.60;99.90
285;DHT22;127;48.770;9.212;2023-07-13T05:13:53;17.40;99.90
285;DHT22;127;48.770;9.212;2023-07-13T05:16:21;17.40;99.90
285;DHT22;127;48.770;9.212;2023-07-13T05:18:54;17.50;99.90
285;DHT22;127;48.770;9.212;2023-07-13T05:21:23;17.60;99.90
285;DHT22;127;48.770;9.212;2023-07-13T05:23:51;17.70;99.90
285;DHT22;127;48.770;9.212;2023-07-13T05:26:20;17.90;99.90
285;DHT22;127;48.770;9.212;2023-07-13T05:28:51;18.10;99.90
285;DHT22;127;48.770;9.212;2023-07-13T05:31:20;18.30;99.90
285;DHT22;127;48.770;9.212;2023-07-13T05:33:50;18.40;99.90
285;DHT22;127;48.770;9.212;2023-07-13T05:36:19;18.40;99.90
285;DHT22;127;48.770;9.212;2023-07-13T05:38:48;18.50;99.90
285;DHT22;127;48.770;9.212;2023-07-13T05:41:19;18.30;99.90
285;DHT22;127;48.770;9.212;2023-07-13T05:43:48;18.70;99.90
285;DHT22;127;48.770;9.212;2023-07-13T05:46:19;18.80;99.90
285;DHT22;127;48.770;9.212;2023-07-13T05:48:48;18.90;99.90
285;DHT22;127;48.770;9.212;2023-07-13T05:51:22;19.00;99.90
285;DHT22;127;48.770;9.212;2023-07-13T05:53:51;19.00;99.90
285;DHT22;127;48.770;9.212;2023-07-13T05:56:20;19.10;99.90
285;DHT22;127;48.770;9.212;2023-07-13T05:58:52;19.20;99.90
285;DHT22;127;48.770;9.212;2023-07-13T06:01:23;19.10;99.90
285;DHT22;127;48.770;9.212;2023-07-13T06:03:52;19.10;99.90
285;DHT22;127;48.770;9.212;2023-07-13T06:06:21;19.00;99.90
285;DHT22;127;48.770;9.212;2023-07-13T06:08:49;18.90;99.90
285;DHT22;127;48.770;9.212;2023-07-13T06:11:22;18.90;99.90
285;DHT22;127;48.770;9.212;2023-07-13T06:13:51;19.00;99.90
285;DHT22;127;48.770;9.212;2023-07-13T06:16:23;19.00;99.90
285;DHT22;127;48.770;9.212;2023-07-13T06:18:51;19.00;99.90
285;DHT22;127;48.770;9.212;2023-07-13T06:21:23;19.00;99.90
285;DHT22;127;48.770;9.212;2023-07-13T06:23:58;19.00;99.90
285;DHT22;127;48.770;9.212;2023-07-13T06:26:27;19.10;99.90
285;DHT22;127;48.770;9.212;2023-07-13T06:28:57;18.90;99.90
285;DHT22;127;48.770;9.212;2023-07-13T06:31:30;18.90;99.90
285;DHT22;127;48.770;9.212;2023-07-13T06:34:00;19.00;99.90
285;DHT22;127;48.770;9.212;2023-07-13T06:36:29;19.00;99.90
285;DHT22;127;48.770;9.212;2023-07-13T06:38:58;19.10;99.90
285;DHT22;127;48.770;9.212;2023-07-13T06:41:28;19.20;99.90
285;DHT22;127;48.770;9.212;2023-07-13T06:43:58;19.30;99.90
285;DHT22;127;48.770;9.212;2023-07-13T06:46:31;19.20;99.90
285;DHT22;127;48.770;9.212;2023-07-13T06:49:09;19.20;99.90
285;DHT22;127;48.770;9.212;2023-07-13T06:51:40;19.20;99.90
285;DHT22;127;48.770;9.212;2023-07-13T06:54:20;19.60;99.90
285;DHT22;127;48.770;9.212;2023-07-13T06:56:51;19.60;99.90
285;DHT22;127;48.770;9.212;2023-07-13T06:59:20;19.80;99.90
285;DHT22;127;48.770;9.212;2023-07-13T07:01:51;19.90;99.90
285;DHT22;127;48.770;9.212;2023-07-13T07:04:20;20.10;99.90
285;DHT22;127;48.770;9.212;2023-07-13T07:06:54;19.90;99.90
285;DHT22;127;48.770;9.212;2023-07-13T07:09:25;19.90;99.90
285;DHT22;127;48.770;9.212;2023-07-13T07:12:06;20.10;99.90
285;DHT22;127;48.770;9.212;2023-07-13T07:14:41;20.10;99.90
285;DHT22;127;48.770;9.212;2023-07-13T07:17:16;20.20;99.90
285;DHT22;127;48.770;9.212;2023-07-13T07:19:46;20.30;99.90
285;DHT22;127;48.770;9.212;2023-07-13T07:22:15;20.10;99.90
285;DHT22;127;48.770;9.212;2023-07-13T07:24:44;20.20;99.90
285;DHT22;127;48.770;9.212;2023-07-13T07:27:12;20.20;99.90
285;DHT22;127;48.770;9.212;2023-07-13T07:29:41;20.20;99.90
285;DHT22;127;48.770;9.212;2023-07-13T07:32:12;20.40;99.90
285;DHT22;127;48.770;9.212;2023-07-13T07:34:41;20.50;99.90
285;DHT22;127;48.770;9.212;2023-07-13T07:37:11;20.60;99.90
285;DHT22;127;48.770;9.212;2023-07-13T07:39:40;20.70;99.90
285;DHT22;127;48.770;9.212;2023-07-13T07:42:09;20.80;99.90
285;DHT22;127;48.770;9.212;2023-07-13T07:44:39;20.80;99.90
285;DHT22;127;48.770;9.212;2023-07-13T07:47:08;20.80;99.90
285;DHT22;127;48.770;9.212;2023-07-13T07:49:40;21.00;99.90
285;DHT22;127;48.770;9.212;2023-07-13T07:52:08;21.10;99.90
285;DHT22;127;48.770;9.212;2023-07-13T07:54:37;21.10;99.90
285;DHT22;127;48.770;9.212;2023-07-13T07:57:06;21.10;99.90
285;DHT22;127;48.770;9.212;2023-07-13T07:59:36;21.20;99.90
285;DHT22;127;48.770;9.212;2023-07-13T08:02:06;21.30;99.90
285;DHT22;127;48.770;9.212;2023-07-13T08:04:35;21.50;99.90
285;DHT22;127;48.770;9.212;2023-07-13T08:07:07;21.60;99.90
285;DHT22;127;48.770;9.212;2023-07-13T08:09:39;21.80;99.90
285;DHT22;127;48.770;9.212;2023-07-13T08:12:08;21.90;99.90
285;DHT22;127;48.770;9.212;2023-07-13T08:14:37;22.10;99.90
285;DHT22;127;48.770;9.212;2023-07-13T08:17:05;22.20;99.90
285;DHT22;127;48.770;9.212;2023-07-13T08:19:34;22.30;99.90
285;DHT22;127;48.770;9.212;2023-07-13T08:22:06;22.40;99.90
285;DHT22;127;48.770;9.212;2023-07-13T08:24:35;22.60;99.90
285;DHT22;127;48.770;9.212;2023-07-13T08:27:04;22.50;99.90
285;DHT22;127;48.770;9.212;2023-07-13T08:29:33;22.30;99.90
285;DHT22;127;48.770;9.212;2023-07-13T08:32:02;22.40;99.90
285;DHT22;127;48.770;9.212;2023-07-13T08:34:31;22.60;99.90
285;DHT22;127;48.770;9.212;2023-07-13T08:37:00;22.70;99.90
285;DHT22;127;48.770;9.212;2023-07-13T08:39:33;22.90;99.90
285;DHT22;127;48.770;9.212;2023-07-13T08:42:05;23.00;99.90
285;DHT22;127;48.770;9.212;2023-07-13T08:44:43;23.10;99.90
285;DHT22;127;48.770;9.212;2023-07-13T08:47:15;23.30;99.90
285;DHT22;127;48.770;9.212;2023-07-13T08:49:44;23.50;99.90
285;DHT22;127;48.770;9.212;2023-07-13T08:52:17;23.80;99.90
285;DHT22;127;48.770;9.212;2023-07-13T08:54:53;24.10;99.90
285;DHT22;127;48.770;9.212;2023-07-13T08:57:32;24.50;99.90
285;DHT22;127;48.770;9.212;2023-07-13T09:00:02;24.70;99.90
285;DHT22;127;48.770;9.212;2023-07-13T09:02:41;25.00;99.90
285;DHT22;127;48.770;9.212;2023-07-13T09:05:13;25.30;99.90
285;DHT22;127;48.770;9.212;2023-07-13T09:07:59;25.40;99.90
285;DHT22;127;48.770;9.212;2023-07-13T09:10:37;25.30;99.90
285;DHT22;127;48.770;9.212;2023-07-13T09:13:22;25.50;99.90
285;DHT22;127;48.770;9.212;2023-07-13T09:15:52;25.90;99.90
285;DHT22;127;48.770;9.212;2023-07-13T09:18:26;26.10;99.90
285;DHT22;127;48.770;9.212;2023-07-13T09:20:59;26.30;99.90
285;DHT22;127;48.770;9.212;2023-07-13T09:23:29;26.40;99.90
285;DHT22;127;48.770;9.212;2023-07-13T09:26:06;26.80;99.90
285;DHT22;127;48.770;9.212;2023-07-13T09:28:40;26.80;99.90
285;DHT22;127;48.770;9.212;2023-07-13T09:31:13;26.70;99.90
285;DHT22;127;48.770;9.212;2023-07-13T09:33:43;26.70;99.90
285;DHT22;127;48.770;9.212;2023-07-13T09:36:19;27.70;99.90
285;DHT22;127;48.770;9.212;2023-07-13T09:38:52;29.00;99.90
285;DHT22;127;48.770;9.212;2023-07-13T09:41:29;30.20;99.90
285;DHT22;127;48.770;9.212;2023-07-13T09:44:11;30.40;99.90
285;DHT22;127;48.770;9.212;2023-07-13T09:46:44;31.10;99.90
285;DHT22;127;48.770;9.212;2023-07-13T09:49:13;30.50;99.90
285;DHT22;127;48.770;9.212;2023-07-13T09:51:42;29.90;99.90
285;DHT22;127;48.770;9.212;2023-07-13T09:54:19;29.40;99.90
285;DHT22;127;48.770;9.212;2023-07-13T09:56:54;28.60;99.90
285;DHT22;127;48.770;9.212;2023-07-13T09:59:26;29.00;99.90
285;DHT22;127;48.770;9.212;2023-07-13T10:01:55;30.10;99.90
285;DHT22;127;48.770;9.212;2023-07-13T10:04:31;31.20;99.90
285;DHT22;127;48.770;9.212;2023-07-13T10:07:07;30.40;99.90
285;DHT22;127;48.770;9.212;2023-07-13T10:09:36;30.40;99.90
285;DHT22;127;48.770;9.212;2023-07-13T10:12:13;30.30;99.90
285;DHT22;127;48.770;9.212;2023-07-13T10:14:43;30.40;99.90
285;DHT22;127;48.770;9.212;2023-07-13T10:17:14;30.60;99.90
285;DHT22;127;48.770;9.212;2023-07-13T10:19:43;29.30;99.90
285;DHT22;127;48.770;9.212;2023-07-13T10:22:16;30.60;99.90
285;DHT22;127;48.770;9.212;2023-07-13T10:24:48;30.50;99.90
285;DHT22;127;48.770;9.212;2023-07-13T10:27:22;30.90;99.90
285;DHT22;127;48.770;9.212;2023-07-13T10:29:54;31.40;99.90
285;DHT22;127;48.770;9.212;2023-07-13T10:32:24;30.90;99.90
285;DHT22;127;48.770;9.212;2023-07-13T10:34:53;31.40;99.90
285;DHT22;127;48.770;9.212;2023-07-13T10:37:28;29.70;99.90
285;DHT22;127;48.770;9.212;2023-07-13T10:39:59;28.40;99.90
285;DHT22;127;48.770;9.212;2023-07-13T10:42:35;28.70;99.90
285;DHT22;127;48.770;9.212;2023-07-13T10:45:15;29.70;99.90
285;DHT22;127;48.770;9.212;2023-07-13T10:47:45;30.50;99.90
285;DHT22;127;48.770;9.212;2023-07-13T10:50:21;31.70;99.90
285;DHT22;127;48.770;9.212;2023-07-13T10:52:52;29.50;99.90
285;DHT22;127;48.770;9.212;2023-07-13T10:55:38;30.10;99.90
285;DHT22;127;48.770;9.212;2023-07-13T10:58:19;29.30;99.90
285;DHT22;127;48.770;9.212;2023-07-13T11:01:01;29.40;99.90
285;DHT22;127;48.770;9.212;2023-07-13T11:03:32;30.00;99.90
285;DHT22;127;48.770;9.212;2023-07-13T11:06:08;30.80;99.90
285;DHT22;127;48.770;9.212;2023-07-13T11:08:51;31.30;99.90
285;DHT22;127;48.770;9.212;2023-07-13T11:11:36;32.60;99.90
285;DHT22;127;48.770;9.212;2023-07-13T11:14:27;33.50;99.90
285;DHT22;127;48.770;9.212;2023-07-13T11:16:56;32.80;99.90
285;DHT22;127;48.770;9.212;2023-07-13T11:19:39;32.20;99.90
285;DHT22;127;48.770;9.212;2023-07-13T11:22:15;32.10;99.90
285;DHT22;127;48.770;9.212;2023-07-13T11:27:41;31.80;99.90
285;DHT22;127;48.770;9.212;2023-07-13T11:30:34;31.70;99.90
285;DHT22;127;48.770;9.212;2023-07-13T11:33:14;30.70;99.90
285;DHT22;127;48.770;9.212;2023-07-13T11:35:57;30.80;99.90
285;DHT22;127;48.770;9.212;2023-07-13T11:38:33;30.60;99.90
285;DHT22;127;48.770;9.212;2023-07-13T11:41:05;31.60;99.90
285;DHT22;127;48.770;9.212;2023-07-13T11:43:34;31.80;99.90
285;DHT22;127;48.770;9.212;2023-07-13T11:46:18;33.90;99.90
285;DHT22;127;48.770;9.212;2023-07-13T11:48:49;35.10;99.90
285;DHT22;127;48.770;9.212;2023-07-13T11:51:22;35.70;99.90
285;DHT22;127;48.770;9.212;2023-07-13T11:53:54;35.80;99.90
285;DHT22;127;48.770;9.212;2023-07-13T11:56:23;33.50;99.90
285;DHT22;127;48.770;9.212;2023-07-13T11:58:56;33.20;99.90
285;DHT22;127;48.770;9.212;2023-07-13T12:01:30;32.60;99.90
285;DHT22;127;48.770;9.212;2023-07-13T12:04:00;32.80;99.90
285;DHT22;127;48.770;9.212;2023-07-13T12:06:31;31.90;99.90
285;DHT22;127;48.770;9.212;2023-07-13T12:09:10;31.70;99.90
285;DHT22;127;48.770;9.212;2023-07-13T12:11:42;34.20;99.90
285;DHT22;127;48.770;9.212;2023-07-13T12:14:15;33.00;99.90
285;DHT22;127;48.770;9.212;2023-07-13T12:16:47;32.40;99.90
285;DHT22;127;48.770;9.212;2023-07-13T12:19:18;33.20;99.90
285;DHT22;127;48.770;9.212;2023-07-13T12:21:49;32.40;99.90
285;DHT22;127;48.770;9.212;2023-07-13T12:24:20;32.60;99.90
285;DHT22;127;48.770;9.212;2023-07-13T12:26:54;33.30;99.90
285;DHT22;127;48.770;9.212;2023-07-13T12:29:23;33.60;99.90
285;DHT22;127;48.770;9.212;2023-07-13T12:31:55;32.30;99.90
285;DHT22;127;48.770;9.212;2023-07-13T12:34:26;32.50;99.90
285;DHT22;127;48.770;9.212;2023-07-13T12:36:56;32.50;99.90
285;DHT22;127;48.770;9.212;2023-07-13T12:39:32;33.00;99.90
285;DHT22;127;48.770;9.212;2023-07-13T12:42:18;31.70;99.90
285;DHT22;127;48.770;9.212;2023-07-13T12:44:49;30.30;99.90
285;DHT22;127;48.770;9.212;2023-07-13T12:47:21;30.00;99.90
285;DHT22;127;48.770;9.212;2023-07-13T12:49:55;29.30;99.90
285;DHT22;127;48.770;9.212;2023-07-13T12:52:29;29.00;99.90
285;DHT22;127;48.770;9.212;2023-07-13T12:55:04;29.10;99.90
285;DHT22;127;48.770;9.212;2023-07-13T12:57:39;28.90;99.90
285;DHT22;127;48.770;9.212;2023-07-13T13:00:24;29.00;99.90
285;DHT22;127;48.770;9.212;2023-07-13T13:03:01;30.60;99.90
285;DHT22;127;48.770;9.212;2023-07-13T13:05:32;32.60;99.90
285;DHT22;127;48.770;9.212;2023-07-13T13:08:04;34.00;99.90
285;DHT22;127;48.770;9.212;2023-07-13T13:10:33;34.30;99.90
285;DHT22;127;48.770;9.212;2023-07-13T13:13:01;34.40;99.90
285;DHT22;127;48.770;9.212;2023-07-13T13:15:30;35.30;99.90
285;DHT22;127;48.770;9.212;2023-07-13T13:18:02;36.30;99.90
285;DHT22;127;48.770;9.212;2023-07-13T13:20:30;35.30;99.90
285;DHT22;127;48.770;9.212;2023-07-13T13:22:59;34.50;99.90
285;DHT22;127;48.770;9.212;2023-07-13T13:25:28;34.20;99.90
285;DHT22;127;48.770;9.212;2023-07-13T13:27:56;34.00;99.90
285;DHT22;127;48.770;9.212;2023-07-13T13:30:25;35.00;99.90
285;DHT22;127;48.770;9.212;2023-07-13T13:32:54;35.30;99.90
285;DHT22;127;48.770;9.212;2023-07-13T13:35:25;35.00;99.90
285;DHT22;127;48.770;9.212;2023-07-13T13:37:55;35.30;99.90
285;DHT22;127;48.770;9.212;2023-07-13T13:40:23;35.50;98.40
285;DHT22;127;48.770;9.212;2023-07-13T13:42:53;36.10;97.10
285;DHT22;127;48.770;9.212;2023-07-13T13:45:22;34.50;99.10
285;DHT22;127;48.770;9.212;2023-07-13T13:47:50;34.80;98.60
285;DHT22;127;48.770;9.212;2023-07-13T13:50:27;35.40;97.10
285;DHT22;127;48.770;9.212;2023-07-13T13:52:56;36.00;96.20
285;DHT22;127;48.770;9.212;2023-07-13T13:55:25;36.20;97.30
285;DHT22;127;48.770;9.212;2023-07-13T13:57:54;36.40;94.60
285;DHT22;127;48.770;9.212;2023-07-13T14:00:22;34.50;97.10
285;DHT22;127;48.770;9.212;2023-07-13T14:02:51;33.70;97.50
285;DHT22;127;48.770;9.212;2023-07-13T14:05:26;33.30;97.70
285;DHT22;127;48.770;9.212;2023-07-13T14:07:56;32.00;98.70
285;DHT22;127;48.770;9.212;2023-07-13T14:10:28;31.30;99.90
285;DHT22;127;48.770;9.212;2023-07-13T14:12:57;31.70;99.30
285;DHT22;127;48.770;9.212;2023-07-13T14:15:27;31.50;99.40
285;DHT22;127;48.770;9.212;2023-07-13T14:17:56;32.20;98.70
285;DHT22;127;48.770;9.212;2023-07-13T14:20:28;32.00;99.90
285;DHT22;127;48.770;9.212;2023-07-13T14:22:56;30.80;99.90
285;DHT22;127;48.770;9.212;2023-07-13T14:25:25;30.90;99.90
285;DHT22;127;48.770;9.212;2023-07-13T14:27:57;31.10;99.90
285;DHT22;127;48.770;9.212;2023-07-13T14:30:33;31.30;99.90
285;DHT22;127;48.770;9.212;2023-07-13T14:33:04;31.20;99.90
285;DHT22;127;48.770;9.212;2023-07-13T14:35:35;30.40;99.90
285;DHT22;127;48.770;9.212;2023-07-13T14:38:04;30.00;99.90
285;DHT22;127;48.770;9.212;2023-07-13T14:40:33;30.60;99.90
285;DHT22;127;48.770;9.212;2023-07-13T14:43:02;30.70;99.90
285;DHT22;127;48.770;9.212;2023-07-13T14:45:31;29.70;99.90
285;DHT22;127;48.770;9.212;2023-07-13T14:48:00;29.10;99.90
285;DHT22;127;48.770;9.212;2023-07-13T14:50:35;28.70;99.90
285;DHT22;127;48.770;9.212;2023-07-13T14:53:04;30.00;99.90
285;DHT22;127;48.770;9.212;2023-07-13T14:55:33;31.20;99.90
285;DHT22;127;48.770;9.212;2023-07-13T14:58:02;31.80;99.60
285;DHT22;127;48.770;9.212;2023-07-13T15:00:31;32.40;98.60
285;DHT22;127;48.770;9.212;2023-07-13T15:03:00;32.90;98.30
285;DHT22;127;48.770;9.212;2023-07-13T15:05:31;32.80;97.80
285;DHT22;127;48.770;9.212;2023-07-13T15:08:03;32.80;97.20
285;DHT22;127;48.770;9.212;2023-07-13T15:10:33;32.50;97.00
285;DHT22;127;48.770;9.212;2023-07-13T15:13:14;32.20;98.30
285;DHT22;127;48.770;9.212;2023-07-13T15:15:45;32.20;97.20
285;DHT22;127;48.770;9.212;2023-07-13T15:18:15;32.30;97.40
285;DHT22;127;48.770;9.212;2023-07-13T15:20:46;33.00;96.70
285;DHT22;127;48.770;9.212;2023-07-13T15:23:18;32.30;98.00
285;DHT22;127;48.770;9.212;2023-07-13T15:25:48;30.70;99.00
285;DHT22;127;48.770;9.212;2023-07-13T15:28:18;31.00;98.20
285;DHT22;127;48.770;9.212;2023-07-13T15:30:48;31.40;97.70
285;DHT22;127;48.770;9.212;2023-07-13T15:33:20;31.80;97.40
285;DHT22;127;48.770;9.212;2023-07-13T15:35:50;30.60;99.90
285;DHT22;127;48.770;9.212;2023-07-13T15:38:24;30.60;98.50
285;DHT22;127;48.770;9.212;2023-07-13T15:40:54;31.10;97.70
285;DHT22;127;48.770;9.212;2023-07-13T15:43:25;31.60;97.10
285;DHT22;127;48.770;9.212;2023-07-13T15:45:55;31.70;97.10
285;DHT22;127;48.770;9.212;2023-07-13T15:48:25;31.70;98.30
285;DHT22;127;48.770;9.212;2023-07-13T15:50:55;30.90;97.30
285;DHT22;127;48.770;9.212;2023-07-13T15:53:32;30.80;98.00
285;DHT22;127;48.770;9.212;2023-07-13T15:56:20;30.60;97.90
285;DHT22;127;48.770;9.212;2023-07-13T15:58:49;30.60;97.80
285;DHT22;127;48.770;9.212;2023-07-13T16:01:18;30.80;97.90
285;DHT22;127;48.770;9.212;2023-07-13T16:03:48;31.20;97.00
285;DHT22;127;48.770;9.212;2023-07-13T16:06:24;30.40;99.90
285;DHT22;127;48.770;9.212;2023-07-13T16:08:57;30.40;98.00
285;DHT22;127;48.770;9.212;2023-07-13T16:11:29;30.00;98.70
285;DHT22;127;48.770;9.212;2023-07-13T16:13:59;30.20;98.60
285;DHT22;127;48.770;9.212;2023-07-13T16:16:32;30.20;99.40
285;DHT22;127;48.770;9.212;2023-07-13T16:19:03;30.20;98.40
285;DHT22;127;48.770;9.212;2023-07-13T16:21:36;30.50;99.90
285;DHT22;127;48.770;9.212;2023-07-13T16:24:16;30.80;97.60
285;DHT22;127;48.770;9.212;2023-07-13T16:26:46;30.20;98.00
285;DHT22;127;48.770;9.212;2023-07-13T16:29:17;30.10;98.70
285;DHT22;127;48.770;9.212;2023-07-13T16:31:58;30.10;98.50
285;DHT22;127;48.770;9.212;2023-07-13T16:34:28;30.20;98.10
285;DHT22;127;48.770;9.212;2023-07-13T16:36:58;30.20;98.10
285;DHT22;127;48.770;9.212;2023-07-13T16:39:31;30.20;98.00
285;DHT22;127;48.770;9.212;2023-07-13T16:42:01;30.30;99.10
285;DHT22;127;48.770;9.212;2023-07-13T16:44:31;30.30;97.60
285;DHT22;127;48.770;9.212;2023-07-13T16:47:00;30.00;98.40
285;DHT22;127;48.770;9.212;2023-07-13T16:49:31;29.80;98.50
285;DHT22;127;48.770;9.212;2023-07-13T16:52:02;29.90;98.50
285;DHT22;127;48.770;9.212;2023-07-13T16:54:35;29.60;98.60
285;DHT22;127;48.770;9.212;2023-07-13T16:57:12;29.30;99.90
285;DHT22;127;48.770;9.212;2023-07-13T16:59:42;29.30;99.10
285;DHT22;127;48.770;9.212;2023-07-13T17:02:33;29.20;99.70
285;DHT22;127;48.770;9.212;2023-07-13T17:05:04;29.10;99.90